createdAt,value
2023-05-22T00:01:46.727Z,10.40
2023-05-22T00:04:21.587Z,10.25
2023-05-22T00:06:49.053Z,11.27
2023-05-22T00:09:15.825Z,10.52
2023-05-22T00:11:44.792Z,10.32
2023-05-22T00:14:15.524Z,10.38
2023-05-22T00:16:42.242Z,10.60
2023-05-22T00:19:15.236Z,9.85
2023-05-22T00:21:42.831Z,10.65
2023-05-22T00:24:09.776Z,10.20
2023-05-22T00:26:36.375Z,10.23
2023-05-22T00:29:03.511Z,10.60
2023-05-22T00:31:30.071Z,9.52
2023-05-22T00:33:56.613Z,9.70
2023-05-22T00:36:23.151Z,10.23
2023-05-22T00:38:49.692Z,10.52
2023-05-22T00:41:19.356Z,9.90
2023-05-22T00:43:50.880Z,9.98
2023-05-22T00:46:21.489Z,10.38
2023-05-22T00:48:48.968Z,10.45
2023-05-22T00:51:20.668Z,10.23
2023-05-22T00:53:50.974Z,11.07
2023-05-22T00:56:18.639Z,10.45
2023-05-22T00:58:45.825Z,10.10
2023-05-22T01:01:13.015Z,10.68
2023-05-22T01:03:45.268Z,9.43
2023-05-22T01:06:14.123Z,10.38
2023-05-22T01:08:41.433Z,9.63
2023-05-22T01:11:15.316Z,9.90
2023-05-22T01:14:13.842Z,10.70
2023-05-22T01:16:47.637Z,10.35
2023-05-22T01:20:02.070Z,10.80
2023-05-22T01:23:04.476Z,10.30
2023-05-22T01:25:49.503Z,10.27
2023-05-22T01:28:25.042Z,10.70
2023-05-22T01:31:01.848Z,9.57
2023-05-22T01:33:33.423Z,11.23
2023-05-22T01:36:02.565Z,10.82
2023-05-22T01:38:30.531Z,9.80
2023-05-22T01:40:58.214Z,11.38
2023-05-22T01:43:24.846Z,11.93
2023-05-22T01:45:51.523Z,12.02
2023-05-22T01:48:20.196Z,12.25
2023-05-22T01:50:51.428Z,11.48
2023-05-22T01:53:23.140Z,12.23
2023-05-22T01:56:06.424Z,12.57
2023-05-22T01:59:02.423Z,11.63
2023-05-22T02:01:32.521Z,11.77
2023-05-22T02:04:01.756Z,13.43
2023-05-22T02:06:32.359Z,13.02
2023-05-22T02:09:01.231Z,13.63
2023-05-22T02:11:31.132Z,13.15
2023-05-22T02:13:57.835Z,14.63
2023-05-22T02:16:24.560Z,15.15
2023-05-22T02:18:58.894Z,13.98
2023-05-22T02:21:25.429Z,14.55
2023-05-22T02:23:52.004Z,13.60
2023-05-22T02:26:18.462Z,14.05
2023-05-22T02:28:45.001Z,13.75
2023-05-22T02:31:11.539Z,14.52
2023-05-22T02:33:38.033Z,14.38
2023-05-22T02:36:04.753Z,14.00
2023-05-22T02:38:31.269Z,14.05
2023-05-22T02:40:57.753Z,13.40
2023-05-22T02:43:24.244Z,14.90
2023-05-22T02:45:52.933Z,13.93
2023-05-22T02:48:19.712Z,13.63
2023-05-22T02:50:48.693Z,12.18
2023-05-22T02:53:15.697Z,13.35
2023-05-22T02:55:42.264Z,12.02
2023-05-22T02:58:12.159Z,12.25
2023-05-22T03:00:39.092Z,11.88
2023-05-22T03:03:07.033Z,11.85
2023-05-22T03:05:33.696Z,10.63
2023-05-22T03:08:00.370Z,11.10
2023-05-22T03:10:27.147Z,10.10
2023-05-22T03:12:56.727Z,9.68
2023-05-22T03:15:26.238Z,9.57
2023-05-22T03:17:54.790Z,9.73
2023-05-22T03:20:21.429Z,9.43
2023-05-22T03:22:47.926Z,8.90
2023-05-22T03:25:14.459Z,8.27
2023-05-22T03:27:41.228Z,8.40
2023-05-22T03:30:08.378Z,7.90
2023-05-22T03:32:37.722Z,7.40
2023-05-22T03:35:05.516Z,7.43
2023-05-22T03:37:32.029Z,7.35
2023-05-22T03:39:58.573Z,7.82
2023-05-22T03:42:28.084Z,6.72
2023-05-22T03:44:58.852Z,6.10
2023-05-22T03:47:27.826Z,5.97
2023-05-22T03:49:56.401Z,6.22
2023-05-22T03:52:23.118Z,5.18
2023-05-22T03:54:49.706Z,5.15
2023-05-22T03:57:16.522Z,5.30
2023-05-22T03:59:42.993Z,5.63
2023-05-22T04:02:13.148Z,5.60
2023-05-22T04:04:39.878Z,5.43
2023-05-22T04:07:08.274Z,5.70
2023-05-22T04:09:36.092Z,5.82
2023-05-22T04:12:03.555Z,5.65
2023-05-22T04:14:30.033Z,5.88
2023-05-22T04:16:58.220Z,5.25
2023-05-22T04:19:24.832Z,5.53
2023-05-22T04:21:51.496Z,5.50
2023-05-22T04:24:18.409Z,5.88
2023-05-22T04:26:44.962Z,6.28
2023-05-22T04:29:14.282Z,6.60
2023-05-22T04:31:41.048Z,6.75
2023-05-22T04:34:07.739Z,6.85
2023-05-22T04:36:35.907Z,7.13
2023-05-22T04:39:04.984Z,7.70
2023-05-22T04:41:32.462Z,8.20
2023-05-22T04:44:00.412Z,7.40
2023-05-22T04:46:29.732Z,7.40
2023-05-22T04:48:56.268Z,7.13
2023-05-22T04:51:23.350Z,7.05
2023-05-22T04:53:52.034Z,6.63
2023-05-22T04:56:31.995Z,6.45
2023-05-22T04:59:04.759Z,6.47
2023-05-22T05:01:33.300Z,8.05
2023-05-22T05:04:00.698Z,8.73
2023-05-22T05:06:28.194Z,9.10
2023-05-22T05:08:55.028Z,9.77
2023-05-22T05:11:21.666Z,9.93
2023-05-22T05:13:51.496Z,9.07
2023-05-22T05:16:19.055Z,7.32
2023-05-22T05:18:45.627Z,6.90
2023-05-22T05:21:12.134Z,7.57
2023-05-22T05:23:38.648Z,6.72
2023-05-22T05:26:05.172Z,5.80
2023-05-22T05:28:31.717Z,6.85
2023-05-22T05:31:01.745Z,8.25
2023-05-22T05:33:31.408Z,9.65
2023-05-22T05:36:01.372Z,6.13
2023-05-22T05:38:31.065Z,5.35
2023-05-22T05:41:01.340Z,5.43
2023-05-22T05:43:31.575Z,4.55
2023-05-22T05:46:01.854Z,6.72
2023-05-22T05:48:31.816Z,4.80
2023-05-22T05:51:01.472Z,4.15
2023-05-22T05:53:29.706Z,5.85
2023-05-22T05:55:56.326Z,6.20
2023-05-22T05:58:22.883Z,4.22
2023-05-22T06:00:49.570Z,4.93
2023-05-22T06:03:17.830Z,3.03
2023-05-22T06:05:45.925Z,3.78
2023-05-22T06:08:13.670Z,4.00
2023-05-22T06:10:40.424Z,3.70
2023-05-22T06:13:09.680Z,3.65
2023-05-22T06:15:38.324Z,3.70
2023-05-22T06:18:05.305Z,3.55
2023-05-22T06:20:32.157Z,4.53
2023-05-22T06:22:59.674Z,5.75
2023-05-22T06:25:29.978Z,3.33
2023-05-22T06:28:00.704Z,3.97
2023-05-22T06:30:39.681Z,4.50
2023-05-22T06:33:07.615Z,4.82
2023-05-22T06:35:34.303Z,4.65
2023-05-22T06:38:00.932Z,3.75
2023-05-22T06:40:31.399Z,3.88
2023-05-22T06:43:01.548Z,3.47
2023-05-22T06:45:31.217Z,3.10
2023-05-22T06:48:01.116Z,4.00
2023-05-22T06:50:31.103Z,6.70
2023-05-22T06:53:01.078Z,3.67
2023-05-22T06:55:30.370Z,3.75
2023-05-22T06:58:00.450Z,3.97
2023-05-22T07:00:29.653Z,2.75
2023-05-22T07:02:56.376Z,5.00
2023-05-22T07:05:23.354Z,7.13
2023-05-22T07:07:49.934Z,5.82
2023-05-22T07:10:16.503Z,4.60
2023-05-22T07:12:43.031Z,3.60
2023-05-22T07:15:12.208Z,3.28
2023-05-22T07:17:41.746Z,10.45
2023-05-22T07:20:10.063Z,5.10
2023-05-22T07:22:36.824Z,6.15
2023-05-22T07:25:06.586Z,4.00
2023-05-22T07:27:33.143Z,9.18
2023-05-22T07:30:00.002Z,4.30
2023-05-22T07:32:26.568Z,6.07
2023-05-22T07:34:53.298Z,6.47
2023-05-22T07:37:19.813Z,6.82
2023-05-22T07:39:49.892Z,4.55
2023-05-22T07:42:16.417Z,8.30
2023-05-22T07:44:42.965Z,8.65
2023-05-22T07:47:09.658Z,8.70
2023-05-22T07:49:36.304Z,12.32
2023-05-22T07:52:02.996Z,12.85
2023-05-22T07:54:32.527Z,8.43
2023-05-22T07:57:03.473Z,9.07
2023-05-22T07:59:30.125Z,8.32
2023-05-22T08:01:58.493Z,9.40
2023-05-22T08:04:26.057Z,8.48
2023-05-22T08:06:52.991Z,9.23
2023-05-22T08:09:21.555Z,7.78
2023-05-22T08:11:48.562Z,9.05
2023-05-22T08:14:15.344Z,8.15
2023-05-22T08:16:41.987Z,9.15
2023-05-22T08:19:09.105Z,9.70
2023-05-22T08:21:35.951Z,9.00
2023-05-22T08:24:05.273Z,9.10
2023-05-22T08:26:33.866Z,9.45
2023-05-22T08:29:00.866Z,9.70
2023-05-22T08:31:29.680Z,9.32
2023-05-22T08:34:02.254Z,9.52
2023-05-22T08:36:33.893Z,8.45
2023-05-22T08:39:01.352Z,9.15
2023-05-22T08:41:29.894Z,8.95
2023-05-22T08:43:59.070Z,9.57
2023-05-22T08:46:31.739Z,10.15
2023-05-22T08:49:02.121Z,9.32
2023-05-22T08:51:37.708Z,10.90
2023-05-22T08:54:06.741Z,9.25
2023-05-22T08:56:37.339Z,8.65
2023-05-22T08:59:07.182Z,7.70
2023-05-22T09:01:33.773Z,8.73
2023-05-22T09:04:02.127Z,8.80
2023-05-22T09:06:32.816Z,7.63
2023-05-22T09:08:59.909Z,7.75
2023-05-22T09:11:31.322Z,7.47
2023-05-22T09:14:08.767Z,7.28
2023-05-22T09:16:46.025Z,7.15
2023-05-22T09:19:14.791Z,6.63
2023-05-22T09:21:41.800Z,6.80
2023-05-22T09:24:12.143Z,6.40
2023-05-22T09:26:39.680Z,5.88
2023-05-22T09:29:07.561Z,6.55
2023-05-22T09:31:41.778Z,6.43
2023-05-22T09:34:10.311Z,6.50
2023-05-22T09:36:36.864Z,5.95
2023-05-22T09:39:04.666Z,6.10
2023-05-22T09:44:02.452Z,6.57
2023-05-22T09:46:31.567Z,5.63
2023-05-22T09:49:01.624Z,6.10
2023-05-22T09:51:31.310Z,6.18
2023-05-22T09:54:03.665Z,6.00
2023-05-22T09:56:40.165Z,5.80
2023-05-22T09:59:09.513Z,5.47
2023-05-22T10:01:38.692Z,5.43
2023-05-22T10:04:06.622Z,6.05
2023-05-22T10:06:34.646Z,5.00
2023-05-22T10:09:10.131Z,5.28
2023-05-22T10:11:37.681Z,5.20
2023-05-22T10:14:05.160Z,5.25
2023-05-22T10:16:34.024Z,5.20
2023-05-22T10:19:01.084Z,4.70
2023-05-22T10:21:30.149Z,4.80
2023-05-22T10:24:00.735Z,4.40
2023-05-22T10:26:31.703Z,5.30
2023-05-22T10:29:10.505Z,4.05
2023-05-22T10:31:44.363Z,4.40
2023-05-22T10:34:17.962Z,4.70
2023-05-22T10:37:16.565Z,4.95
2023-05-22T10:40:00.914Z,4.68
2023-05-22T10:42:34.143Z,4.78
2023-05-22T10:45:01.164Z,5.32
2023-05-22T10:47:33.734Z,4.75
2023-05-22T10:50:07.247Z,5.15
2023-05-22T10:52:34.959Z,4.90
2023-05-22T10:55:05.958Z,4.80
2023-05-22T10:57:34.602Z,4.82
2023-05-22T11:00:11.636Z,4.70
2023-05-22T11:02:47.525Z,4.68
2023-05-22T11:05:19.959Z,4.65
2023-05-22T11:07:46.605Z,5.03
2023-05-22T11:10:13.232Z,4.35
2023-05-22T11:12:41.644Z,4.88
2023-05-22T11:15:10.420Z,5.05
2023-05-22T11:17:40.261Z,4.20
2023-05-22T11:20:12.852Z,4.40
2023-05-22T11:22:44.230Z,4.68
2023-05-22T11:25:16.917Z,4.38
2023-05-22T11:27:45.026Z,4.60
2023-05-22T11:30:12.898Z,4.60
2023-05-22T11:32:45.043Z,4.85
2023-05-22T11:35:19.135Z,5.03
2023-05-22T11:37:46.749Z,4.25
2023-05-22T11:40:16.430Z,4.40
2023-05-22T11:42:43.487Z,4.35
2023-05-22T11:45:11.025Z,4.68
2023-05-22T11:47:38.757Z,4.10
2023-05-22T11:50:09.109Z,4.10
2023-05-22T11:52:38.163Z,4.38
2023-05-22T11:55:05.656Z,4.05
2023-05-22T11:57:35.737Z,4.82
2023-05-22T12:00:06.669Z,4.35
2023-05-22T12:02:33.423Z,4.35
2023-05-22T12:05:25.951Z,3.58
2023-05-22T12:08:20.158Z,4.45
2023-05-22T12:10:50.330Z,4.75
2023-05-22T12:13:32.684Z,4.20
2023-05-22T12:16:02.599Z,4.70
2023-05-22T12:18:41.762Z,3.97
2023-05-22T12:21:09.080Z,4.25
2023-05-22T12:23:35.906Z,4.25
2023-05-22T12:26:04.749Z,4.22
2023-05-22T12:28:33.005Z,3.90
2023-05-22T12:31:02.605Z,3.80
2023-05-22T12:33:33.461Z,3.97
2023-05-22T12:36:00.690Z,4.20
2023-05-22T12:38:33.406Z,4.50
2023-05-22T12:41:04.586Z,4.80
2023-05-22T12:43:34.304Z,4.78
2023-05-22T12:46:04.535Z,5.20
2023-05-22T12:48:34.112Z,5.32
2023-05-22T12:51:01.258Z,4.90
2023-05-22T12:53:27.819Z,4.60
2023-05-22T12:55:54.336Z,5.25
2023-05-22T12:58:20.905Z,4.32
2023-05-22T13:00:47.477Z,4.75
2023-05-22T13:03:14.100Z,4.50
2023-05-22T13:05:41.622Z,4.47
2023-05-22T13:08:08.702Z,4.38
2023-05-22T13:10:35.892Z,5.00
2023-05-22T13:13:02.942Z,4.53
2023-05-22T13:15:29.640Z,4.57
2023-05-22T13:17:57.026Z,4.20
2023-05-22T13:20:23.743Z,4.38
2023-05-22T13:22:50.413Z,4.03
2023-05-22T13:25:19.069Z,4.30
2023-05-22T13:27:46.276Z,4.50
2023-05-22T13:30:13.070Z,4.60
2023-05-22T13:32:39.709Z,4.35
2023-05-22T13:35:06.667Z,4.57
2023-05-22T13:37:33.325Z,5.18
2023-05-22T13:40:00.137Z,4.68
2023-05-22T13:42:27.097Z,6.15
2023-05-22T13:44:54.123Z,4.97
2023-05-22T13:47:23.013Z,5.18
2023-05-22T13:49:50.009Z,5.07
2023-05-22T13:52:16.639Z,6.03
2023-05-22T13:54:43.517Z,5.82
2023-05-22T13:57:10.100Z,6.10
2023-05-22T13:59:36.627Z,5.93
2023-05-22T14:02:03.587Z,6.30
2023-05-22T14:04:30.550Z,6.35
2023-05-22T14:06:57.351Z,6.45
2023-05-22T14:09:23.896Z,6.68
2023-05-22T14:11:50.602Z,7.38
2023-05-22T14:14:23.592Z,7.40
2023-05-22T14:16:53.387Z,7.22
2023-05-22T14:19:20.854Z,6.95
2023-05-22T14:21:49.763Z,7.03
2023-05-22T14:24:16.404Z,6.78
2023-05-22T14:26:43.016Z,7.65
2023-05-22T14:29:09.692Z,7.47
2023-05-22T14:31:51.875Z,7.32
2023-05-22T14:34:18.748Z,7.53
2023-05-22T14:36:45.361Z,7.95
2023-05-22T14:39:11.903Z,8.73
2023-05-22T14:41:38.479Z,8.48
2023-05-22T14:44:05.088Z,8.25
2023-05-22T14:46:35.563Z,8.82
2023-05-22T14:49:05.147Z,9.13
2023-05-22T14:51:32.884Z,9.27
2023-05-22T14:53:59.713Z,8.98
2023-05-22T14:56:26.638Z,9.07
2023-05-22T14:58:53.395Z,9.02
2023-05-22T15:01:20.559Z,9.98
2023-05-22T15:03:47.422Z,9.43
2023-05-22T15:06:14.079Z,9.48
2023-05-22T15:08:40.802Z,9.75
2023-05-22T15:11:07.356Z,9.68
2023-05-22T15:13:33.970Z,9.55
2023-05-22T15:16:00.670Z,9.98
2023-05-22T15:18:27.485Z,9.73
2023-05-22T15:20:54.233Z,9.80
2023-05-22T15:23:25.182Z,10.70
2023-05-22T15:25:53.390Z,10.57
2023-05-22T15:28:20.475Z,11.35
2023-05-22T15:30:47.094Z,11.38
2023-05-22T15:33:13.744Z,10.55
2023-05-22T15:35:42.013Z,10.75
2023-05-22T15:38:12.506Z,9.98
2023-05-22T15:40:40.690Z,11.02
2023-05-22T15:43:07.939Z,10.52
2023-05-22T15:45:36.615Z,11.50
2023-05-22T15:48:06.867Z,11.13
2023-05-22T15:50:36.352Z,10.90
2023-05-22T15:53:05.873Z,11.02
2023-05-22T15:55:35.580Z,9.52
2023-05-22T15:58:07.909Z,9.63
2023-05-22T16:00:45.779Z,9.55
2023-05-22T16:03:12.437Z,8.90
2023-05-22T16:05:40.242Z,8.02
2023-05-22T16:08:09.937Z,6.90
2023-05-22T16:10:36.681Z,7.00
2023-05-22T16:13:06.311Z,7.15
2023-05-22T16:15:37.598Z,6.53
2023-05-22T16:18:07.979Z,6.97
2023-05-22T16:20:35.969Z,7.03
2023-05-22T16:23:05.524Z,7.50
2023-05-22T16:25:35.110Z,7.30
2023-05-22T16:28:05.710Z,7.45
2023-05-22T16:30:38.075Z,8.55
2023-05-22T16:33:04.911Z,7.80
2023-05-22T16:35:32.168Z,7.75
2023-05-22T16:37:59.036Z,7.57
2023-05-22T16:40:25.797Z,7.28
2023-05-22T16:43:36.687Z,8.15
2023-05-22T16:46:06.319Z,8.25
2023-05-22T16:48:36.128Z,7.90
2023-05-22T16:51:03.435Z,8.20
2023-05-22T16:53:30.132Z,7.55
2023-05-22T16:55:56.825Z,7.30
2023-05-22T16:58:39.087Z,7.47
2023-05-22T17:01:08.807Z,8.07
2023-05-22T17:03:35.736Z,7.25
2023-05-22T17:06:44.115Z,8.10
2023-05-22T17:09:03.673Z,7.70
2023-05-22T17:11:42.213Z,7.88
2023-05-22T17:14:09.199Z,7.90
2023-05-22T17:16:38.506Z,7.07
2023-05-22T17:19:08.864Z,8.43
2023-05-22T17:21:36.995Z,8.18
2023-05-22T17:24:12.052Z,8.93
2023-05-22T17:26:40.949Z,8.82
2023-05-22T17:29:07.831Z,8.27
2023-05-22T17:31:39.524Z,8.25
2023-05-22T17:34:09.263Z,8.52
2023-05-22T17:36:36.188Z,9.07
2023-05-22T17:39:05.889Z,8.98
2023-05-22T17:41:37.539Z,8.55
2023-05-22T17:44:07.166Z,9.88
2023-05-22T17:46:37.041Z,9.52
2023-05-22T17:49:12.768Z,10.13
2023-05-22T17:51:39.462Z,10.38
2023-05-22T17:54:08.141Z,10.65
2023-05-22T17:56:36.539Z,10.88
2023-05-22T17:59:07.658Z,11.23
2023-05-22T18:01:36.922Z,10.35
2023-05-22T18:04:05.030Z,11.73
2023-05-22T18:06:34.885Z,11.18
2023-05-22T18:09:04.476Z,11.43
2023-05-22T18:11:33.424Z,10.70
2023-05-22T18:14:00.126Z,10.18
2023-05-22T18:16:26.866Z,12.00
2023-05-22T18:18:53.689Z,11.15
2023-05-22T18:21:20.413Z,10.90
2023-05-22T18:26:39.739Z,10.38
2023-05-22T18:29:06.677Z,12.60
2023-05-22T18:31:36.881Z,10.50
2023-05-22T18:34:06.741Z,12.38
2023-05-22T18:36:38.961Z,11.27
2023-05-22T18:39:07.403Z,11.80
2023-05-22T18:41:37.479Z,11.18
2023-05-22T18:44:07.871Z,11.13
2023-05-22T18:46:37.866Z,10.85
2023-05-22T18:49:07.651Z,10.25
2023-05-22T18:51:37.191Z,11.38
2023-05-22T18:54:06.091Z,10.23
2023-05-22T18:56:32.712Z,11.43
2023-05-22T18:58:59.315Z,10.45
2023-05-22T19:01:26.044Z,10.23
2023-05-22T19:03:52.701Z,11.27
2023-05-22T19:06:19.829Z,11.20
2023-05-22T19:08:46.386Z,10.35
2023-05-22T19:11:13.029Z,11.25
2023-05-22T19:13:41.218Z,11.73
2023-05-22T19:16:07.734Z,11.65
2023-05-22T19:18:36.941Z,11.23
2023-05-22T19:21:03.610Z,11.65
2023-05-22T19:23:30.238Z,11.63
2023-05-22T19:25:58.309Z,11.20
2023-05-22T19:28:25.926Z,11.80
2023-05-22T19:30:53.145Z,11.00
2023-05-22T19:33:21.301Z,11.38
2023-05-22T19:35:47.862Z,12.32
2023-05-22T19:38:14.469Z,11.40
2023-05-22T19:40:41.315Z,11.18
2023-05-22T19:43:08.135Z,12.52
2023-05-22T19:45:36.805Z,11.82
2023-05-22T19:48:03.704Z,11.15
2023-05-22T19:50:30.403Z,11.70
2023-05-22T19:52:57.111Z,12.02
2023-05-22T19:55:23.721Z,12.10
2023-05-22T19:57:50.637Z,12.43
2023-05-22T20:00:17.590Z,12.88
2023-05-22T20:02:44.235Z,13.35
2023-05-22T20:05:13.236Z,13.02
2023-05-22T20:07:41.864Z,12.38
2023-05-22T20:10:10.235Z,12.93
2023-05-22T20:12:39.612Z,13.88
2023-05-22T20:15:16.731Z,12.68
2023-05-22T20:17:48.038Z,12.32
2023-05-22T20:20:14.732Z,12.20
2023-05-22T20:22:41.379Z,13.25
2023-05-22T20:25:08.808Z,12.95
2023-05-22T20:27:39.082Z,14.00
2023-05-22T20:30:11.472Z,14.20
2023-05-22T20:32:39.399Z,13.48
2023-05-22T20:35:09.876Z,14.05
2023-05-22T20:37:38.461Z,14.43
2023-05-22T20:40:08.702Z,14.90
2023-05-22T20:42:39.446Z,13.95
2023-05-22T20:45:12.890Z,14.60
2023-05-22T20:47:41.006Z,14.57
2023-05-22T20:50:11.422Z,15.00
2023-05-22T20:52:41.150Z,14.90
2023-05-22T20:55:10.884Z,13.38
2023-05-22T20:57:41.057Z,13.70
2023-05-22T21:00:11.334Z,13.30
2023-05-22T21:02:41.208Z,13.68
2023-05-22T21:05:11.182Z,13.07
2023-05-22T21:07:40.893Z,13.77
2023-05-22T21:10:08.981Z,13.82
2023-05-22T21:12:35.601Z,13.75
2023-05-22T21:15:02.313Z,13.45
2023-05-22T21:17:29.000Z,13.75
2023-05-22T21:19:55.818Z,13.10
2023-05-22T21:22:22.377Z,12.43
2023-05-22T21:24:49.106Z,12.52
2023-05-22T21:27:16.781Z,13.88
2023-05-22T21:29:43.314Z,12.32
2023-05-22T21:32:09.878Z,12.40
2023-05-22T21:34:40.131Z,13.40
2023-05-22T21:37:11.046Z,12.77
2023-05-22T21:39:40.675Z,14.13
2023-05-22T21:42:10.594Z,12.48
2023-05-22T21:44:41.572Z,13.43
2023-05-22T21:47:10.536Z,12.57
2023-05-22T21:49:39.999Z,13.13
2023-05-22T21:52:06.753Z,13.93
2023-05-22T21:54:33.281Z,12.60
2023-05-22T21:56:59.967Z,13.15
2023-05-22T21:59:26.561Z,13.38
2023-05-22T22:01:53.159Z,13.63
2023-05-22T22:04:19.695Z,14.43
2023-05-22T22:06:46.362Z,15.05
2023-05-22T22:09:12.958Z,13.80
2023-05-22T22:11:41.169Z,14.40
2023-05-22T22:14:07.842Z,14.45
2023-05-22T22:16:35.452Z,14.10
2023-05-22T22:19:02.749Z,15.10
2023-05-22T22:21:29.716Z,14.93
2023-05-22T22:23:56.291Z,15.05
2023-05-22T22:26:22.882Z,15.30
2023-05-22T22:28:49.432Z,15.30
2023-05-22T22:31:16.094Z,15.48
2023-05-22T22:33:42.758Z,15.57
2023-05-22T22:36:09.377Z,16.42
2023-05-22T22:38:36.003Z,15.20
2023-05-22T22:41:04.805Z,15.32
2023-05-22T22:43:31.533Z,15.50
2023-05-22T22:45:58.105Z,15.77
2023-05-22T22:48:24.835Z,15.90
2023-05-22T22:50:52.528Z,14.23
2023-05-22T22:53:19.677Z,15.20
2023-05-22T22:55:47.897Z,15.20
2023-05-22T22:58:14.612Z,14.60
2023-05-22T23:00:43.813Z,14.60
2023-05-22T23:03:13.640Z,16.33
2023-05-22T23:05:40.822Z,14.57
2023-05-22T23:08:07.630Z,13.27
2023-05-22T23:10:34.161Z,16.73
2023-05-22T23:13:00.930Z,15.63
2023-05-22T23:15:27.923Z,15.93
2023-05-22T23:17:54.574Z,16.15
2023-05-22T23:20:21.307Z,16.10
2023-05-22T23:22:47.937Z,16.13
2023-05-22T23:25:17.235Z,15.93
2023-05-22T23:27:46.939Z,16.27
2023-05-22T23:30:17.296Z,15.77
2023-05-22T23:32:47.667Z,15.55
2023-05-22T23:35:17.299Z,14.88
2023-05-22T23:37:46.011Z,15.68
2023-05-22T23:40:13.033Z,15.95
2023-05-22T23:42:39.620Z,16.30
2023-05-22T23:45:06.678Z,15.75
2023-05-22T23:47:33.293Z,15.90
2023-05-22T23:50:00.259Z,16.30
2023-05-22T23:52:27.166Z,15.73
2023-05-22T23:54:53.960Z,15.38
2023-05-22T23:57:20.716Z,16.33
2023-05-22T23:59:47.553Z,15.52
